sensor_id;sensor_type;location;lat;lon;timestamp;P1;durP1;ratioP1;P2;durP2;ratioP2
44000;SDS011;29660;42.892;24.710;2022-10-30T00:00:26;33.40;;;23.20;;
44000;SDS011;29660;42.892;24.710;2022-10-30T00:05:28;30.55;;;19.25;;
44000;SDS011;29660;42.892;24.710;2022-10-30T00:10:30;25.70;;;17.50;;
44000;SDS011;29660;42.892;24.710;2022-10-30T00:15:32;19.17;;;13.15;;
44000;SDS011;29660;42.892;24.710;2022-10-30T00:20:34;14.20;;;9.00;;
44000;SDS011;29660;42.892;24.710;2022-10-30T00:25:37;11.02;;;8.40;;
44000;SDS011;29660;42.892;24.710;2022-10-30T00:30:40;9.57;;;6.63;;
44000;SDS011;29660;42.892;24.710;2022-10-30T00:35:46;10.95;;;8.02;;
44000;SDS011;29660;42.892;24.710;2022-10-30T00:40:49;12.32;;;8.43;;
44000;SDS011;29660;42.892;24.710;2022-10-30T00:45:51;14.70;;;11.10;;
44000;SDS011;29660;42.892;24.710;2022-10-30T00:50:53;17.60;;;12.55;;
44000;SDS011;29660;42.892;24.710;2022-10-30T00:55:59;14.82;;;10.35;;
44000;SDS011;29660;42.892;24.710;2022-10-30T01:01:06;12.95;;;9.20;;
44000;SDS011;29660;42.892;24.710;2022-10-30T01:06:15;11.55;;;8.45;;
44000;SDS011;29660;42.892;24.710;2022-10-30T01:11:18;249.40;;;150.60;;
44000;SDS011;29660;42.892;24.710;2022-10-30T01:38:18;24.08;;;14.40;;
44000;SDS011;29660;42.892;24.710;2022-10-30T01:43:27;17.77;;;11.07;;
44000;SDS011;29660;42.892;24.710;2022-10-30T01:53:44;10.88;;;8.07;;
44000;SDS011;29660;42.892;24.710;2022-10-30T02:04:10;10.23;;;6.60;;
44000;SDS011;29660;42.892;24.710;2022-10-30T02:09:14;12.00;;;7.25;;
44000;SDS011;29660;42.892;24.710;2022-10-30T02:14:32;11.65;;;8.02;;
44000;SDS011;29660;42.892;24.710;2022-10-30T02:19:39;9.80;;;7.40;;
44000;SDS011;29660;42.892;24.710;2022-10-30T02:24:41;10.60;;;7.55;;
44000;SDS011;29660;42.892;24.710;2022-10-30T02:29:43;11.15;;;8.65;;
44000;SDS011;29660;42.892;24.710;2022-10-30T02:34:45;15.27;;;9.20;;
44000;SDS011;29660;42.892;24.710;2022-10-30T02:39:48;12.00;;;10.02;;
44000;SDS011;29660;42.892;24.710;2022-10-30T02:44:50;15.70;;;8.98;;
44000;SDS011;29660;42.892;24.710;2022-10-30T02:49:52;7.72;;;6.40;;
44000;SDS011;29660;42.892;24.710;2022-10-30T02:54:54;10.93;;;7.78;;
44000;SDS011;29660;42.892;24.710;2022-10-30T02:59:56;9.43;;;7.38;;
44000;SDS011;29660;42.892;24.710;2022-10-30T03:04:58;8.30;;;7.13;;
44000;SDS011;29660;42.892;24.710;2022-10-30T03:10:00;13.85;;;10.38;;
44000;SDS011;29660;42.892;24.710;2022-10-30T03:15:05;27.13;;;21.40;;
44000;SDS011;29660;42.892;24.710;2022-10-30T03:20:09;22.08;;;16.23;;
44000;SDS011;29660;42.892;24.710;2022-10-30T03:25:11;17.23;;;13.38;;
44000;SDS011;29660;42.892;24.710;2022-10-30T03:30:13;20.27;;;14.30;;
44000;SDS011;29660;42.892;24.710;2022-10-30T03:35:15;27.88;;;15.55;;
44000;SDS011;29660;42.892;24.710;2022-10-30T03:40:17;19.65;;;12.20;;
44000;SDS011;29660;42.892;24.710;2022-10-30T03:45:20;16.27;;;10.75;;
44000;SDS011;29660;42.892;24.710;2022-10-30T03:50:22;26.52;;;15.57;;
44000;SDS011;29660;42.892;24.710;2022-10-30T03:55:24;27.23;;;16.73;;
44000;SDS011;29660;42.892;24.710;2022-10-30T04:00:27;17.35;;;13.60;;
44000;SDS011;29660;42.892;24.710;2022-10-30T04:05:32;14.85;;;11.70;;
44000;SDS011;29660;42.892;24.710;2022-10-30T04:10:36;15.82;;;11.88;;
44000;SDS011;29660;42.892;24.710;2022-10-30T04:15:42;135.18;;;101.07;;
44000;SDS011;29660;42.892;24.710;2022-10-30T04:20:45;99.60;;;75.35;;
44000;SDS011;29660;42.892;24.710;2022-10-30T04:25:49;50.90;;;26.77;;
44000;SDS011;29660;42.892;24.710;2022-10-30T04:30:52;45.05;;;26.58;;
44000;SDS011;29660;42.892;24.710;2022-10-30T04:35:54;21.17;;;13.65;;
44000;SDS011;29660;42.892;24.710;2022-10-30T04:40:56;23.92;;;15.50;;
44000;SDS011;29660;42.892;24.710;2022-10-30T04:46:13;26.17;;;18.40;;
44000;SDS011;29660;42.892;24.710;2022-10-30T04:51:15;41.55;;;22.67;;
44000;SDS011;29660;42.892;24.710;2022-10-30T04:56:18;72.55;;;35.40;;
44000;SDS011;29660;42.892;24.710;2022-10-30T05:01:21;31.42;;;17.83;;
44000;SDS011;29660;42.892;24.710;2022-10-30T05:06:25;23.73;;;14.05;;
44000;SDS011;29660;42.892;24.710;2022-10-30T05:11:28;31.75;;;21.20;;
44000;SDS011;29660;42.892;24.710;2022-10-30T05:16:30;39.70;;;27.60;;
44000;SDS011;29660;42.892;24.710;2022-10-30T05:21:35;46.38;;;31.67;;
44000;SDS011;29660;42.892;24.710;2022-10-30T05:26:37;39.65;;;25.75;;
44000;SDS011;29660;42.892;24.710;2022-10-30T05:31:40;37.28;;;24.17;;
44000;SDS011;29660;42.892;24.710;2022-10-30T05:37:02;33.67;;;22.15;;
44000;SDS011;29660;42.892;24.710;2022-10-30T05:42:04;28.75;;;19.55;;
44000;SDS011;29660;42.892;24.710;2022-10-30T05:47:16;29.48;;;18.92;;
44000;SDS011;29660;42.892;24.710;2022-10-30T05:52:23;70.88;;;42.63;;
44000;SDS011;29660;42.892;24.710;2022-10-30T05:57:29;39.47;;;23.80;;
44000;SDS011;29660;42.892;24.710;2022-10-30T06:02:34;33.30;;;17.65;;
44000;SDS011;29660;42.892;24.710;2022-10-30T06:07:36;26.45;;;15.07;;
44000;SDS011;29660;42.892;24.710;2022-10-30T06:12:38;25.02;;;19.65;;
44000;SDS011;29660;42.892;24.710;2022-10-30T06:18:00;31.70;;;21.27;;
44000;SDS011;29660;42.892;24.710;2022-10-30T06:23:14;23.15;;;17.55;;
44000;SDS011;29660;42.892;24.710;2022-10-30T06:28:21;24.73;;;15.87;;
44000;SDS011;29660;42.892;24.710;2022-10-30T06:33:25;24.02;;;17.05;;
44000;SDS011;29660;42.892;24.710;2022-10-30T06:38:28;47.47;;;26.73;;
44000;SDS011;29660;42.892;24.710;2022-10-30T06:43:31;22.88;;;14.57;;
44000;SDS011;29660;42.892;24.710;2022-10-30T06:48:38;19.65;;;13.60;;
44000;SDS011;29660;42.892;24.710;2022-10-30T06:53:40;19.17;;;13.45;;
44000;SDS011;29660;42.892;24.710;2022-10-30T06:59:02;20.60;;;12.45;;
44000;SDS011;29660;42.892;24.710;2022-10-30T07:04:23;20.38;;;13.18;;
44000;SDS011;29660;42.892;24.710;2022-10-30T07:09:25;13.82;;;9.98;;
44000;SDS011;29660;42.892;24.710;2022-10-30T07:14:27;16.02;;;10.43;;
44000;SDS011;29660;42.892;24.710;2022-10-30T07:19:51;13.68;;;10.18;;
44000;SDS011;29660;42.892;24.710;2022-10-30T07:24:54;15.73;;;13.10;;
44000;SDS011;29660;42.892;24.710;2022-10-30T07:30:15;16.13;;;10.32;;
44000;SDS011;29660;42.892;24.710;2022-10-30T07:35:41;14.48;;;11.50;;
44000;SDS011;29660;42.892;24.710;2022-10-30T07:41:02;17.52;;;9.27;;
44000;SDS011;29660;42.892;24.710;2022-10-30T07:46:22;12.13;;;6.60;;
44000;SDS011;29660;42.892;24.710;2022-10-30T07:51:53;6.82;;;4.20;;
44000;SDS011;29660;42.892;24.710;2022-10-30T07:56:55;6.10;;;3.95;;
44000;SDS011;29660;42.892;24.710;2022-10-30T08:02:27;8.45;;;4.47;;
44000;SDS011;29660;42.892;24.710;2022-10-30T08:07:49;6.97;;;5.00;;
44000;SDS011;29660;42.892;24.710;2022-10-30T08:12:51;9.00;;;5.70;;
44000;SDS011;29660;42.892;24.710;2022-10-30T08:17:53;9.20;;;5.82;;
44000;SDS011;29660;42.892;24.710;2022-10-30T08:22:56;7.60;;;5.65;;
44000;SDS011;29660;42.892;24.710;2022-10-30T08:33:10;3.13;;;1.88;;
44000;SDS011;29660;42.892;24.710;2022-10-30T08:38:30;4.40;;;3.50;;
44000;SDS011;29660;42.892;24.710;2022-10-30T08:43:58;6.47;;;3.83;;
44000;SDS011;29660;42.892;24.710;2022-10-30T08:49:10;7.93;;;3.03;;
44000;SDS011;29660;42.892;24.710;2022-10-30T08:54:19;5.97;;;3.60;;
44000;SDS011;29660;42.892;24.710;2022-10-30T08:59:21;7.15;;;3.10;;
44000;SDS011;29660;42.892;24.710;2022-10-30T09:04:25;2.75;;;2.40;;
44000;SDS011;29660;42.892;24.710;2022-10-30T09:09:47;4.22;;;2.45;;
44000;SDS011;29660;42.892;24.710;2022-10-30T09:14:50;6.22;;;3.10;;
44000;SDS011;29660;42.892;24.710;2022-10-30T09:19:52;6.18;;;2.83;;
44000;SDS011;29660;42.892;24.710;2022-10-30T09:25:05;5.22;;;2.30;;
44000;SDS011;29660;42.892;24.710;2022-10-30T09:30:22;5.30;;;2.45;;
44000;SDS011;29660;42.892;24.710;2022-10-30T09:35:28;5.22;;;2.17;;
44000;SDS011;29660;42.892;24.710;2022-10-30T09:40:38;4.82;;;1.90;;
44000;SDS011;29660;42.892;24.710;2022-10-30T09:46:22;4.20;;;1.90;;
44000;SDS011;29660;42.892;24.710;2022-10-30T09:51:57;5.10;;;1.98;;
44000;SDS011;29660;42.892;24.710;2022-10-30T10:07:36;5.05;;;2.25;;
44000;SDS011;29660;42.892;24.710;2022-10-30T10:12:59;3.58;;;2.47;;
44000;SDS011;29660;42.892;24.710;2022-10-30T10:18:02;4.28;;;1.55;;
44000;SDS011;29660;42.892;24.710;2022-10-30T10:23:13;4.07;;;1.60;;
44000;SDS011;29660;42.892;24.710;2022-10-30T10:33:55;5.13;;;2.13;;
44000;SDS011;29660;42.892;24.710;2022-10-30T10:55:24;2.50;;;1.10;;
44000;SDS011;29660;42.892;24.710;2022-10-30T11:00:38;10.07;;;4.65;;
44000;SDS011;29660;42.892;24.710;2022-10-30T11:05:58;10.40;;;5.82;;
44000;SDS011;29660;42.892;24.710;2022-10-30T11:11:12;7.72;;;2.30;;
44000;SDS011;29660;42.892;24.710;2022-10-30T11:21:23;4.18;;;1.60;;
44000;SDS011;29660;42.892;24.710;2022-10-30T11:26:27;2.90;;;1.00;;
44000;SDS011;29660;42.892;24.710;2022-10-30T11:31:33;4.30;;;1.17;;
44000;SDS011;29660;42.892;24.710;2022-10-30T11:36:38;4.10;;;1.95;;
44000;SDS011;29660;42.892;24.710;2022-10-30T11:41:40;3.40;;;1.27;;
44000;SDS011;29660;42.892;24.710;2022-10-30T11:46:42;8.50;;;2.00;;
44000;SDS011;29660;42.892;24.710;2022-10-30T11:51:44;4.07;;;1.23;;
44000;SDS011;29660;42.892;24.710;2022-10-30T11:56:48;1.95;;;1.20;;
44000;SDS011;29660;42.892;24.710;2022-10-30T12:02:01;3.03;;;1.20;;
44000;SDS011;29660;42.892;24.710;2022-10-30T12:12:28;8.35;;;2.22;;
44000;SDS011;29660;42.892;24.710;2022-10-30T12:17:34;3.08;;;1.08;;
44000;SDS011;29660;42.892;24.710;2022-10-30T12:22:38;5.45;;;2.47;;
44000;SDS011;29660;42.892;24.710;2022-10-30T12:27:41;3.13;;;1.20;;
44000;SDS011;29660;42.892;24.710;2022-10-30T12:37:54;5.50;;;1.98;;
44000;SDS011;29660;42.892;24.710;2022-10-30T12:48:43;6.03;;;3.10;;
44000;SDS011;29660;42.892;24.710;2022-10-30T12:59:34;3.08;;;1.50;;
44000;SDS011;29660;42.892;24.710;2022-10-30T13:04:46;10.18;;;5.43;;
44000;SDS011;29660;42.892;24.710;2022-10-30T13:09:59;6.43;;;1.70;;
44000;SDS011;29660;42.892;24.710;2022-10-30T13:15:20;3.50;;;1.52;;
44000;SDS011;29660;42.892;24.710;2022-10-30T13:20:26;2.38;;;1.20;;
44000;SDS011;29660;42.892;24.710;2022-10-30T13:25:32;6.28;;;3.15;;
44000;SDS011;29660;42.892;24.710;2022-10-30T13:56:59;4.00;;;2.10;;
44000;SDS011;29660;42.892;24.710;2022-10-30T14:02:21;6.25;;;2.10;;
44000;SDS011;29660;42.892;24.710;2022-10-30T14:07:48;4.72;;;1.95;;
44000;SDS011;29660;42.892;24.710;2022-10-30T14:23:14;2.63;;;1.53;;
44000;SDS011;29660;42.892;24.710;2022-10-30T14:28:22;5.70;;;1.77;;
44000;SDS011;29660;42.892;24.710;2022-10-30T14:39:43;17.15;;;10.75;;
44000;SDS011;29660;42.892;24.710;2022-10-30T14:45:07;14.55;;;6.97;;
44000;SDS011;29660;42.892;24.710;2022-10-30T14:55:30;6.30;;;3.63;;
44000;SDS011;29660;42.892;24.710;2022-10-30T15:00:40;12.18;;;6.00;;
44000;SDS011;29660;42.892;24.710;2022-10-30T15:16:46;11.63;;;7.03;;
44000;SDS011;29660;42.892;24.710;2022-10-30T15:21:51;15.90;;;8.90;;
44000;SDS011;29660;42.892;24.710;2022-10-30T15:26:56;30.80;;;21.08;;
44000;SDS011;29660;42.892;24.710;2022-10-30T15:37:15;52.05;;;32.25;;
44000;SDS011;29660;42.892;24.710;2022-10-30T15:42:17;46.63;;;33.13;;
44000;SDS011;29660;42.892;24.710;2022-10-30T15:47:19;55.70;;;35.20;;
44000;SDS011;29660;42.892;24.710;2022-10-30T15:52:27;51.05;;;34.15;;
44000;SDS011;29660;42.892;24.710;2022-10-30T15:57:34;44.45;;;34.08;;
44000;SDS011;29660;42.892;24.710;2022-10-30T16:03:03;45.92;;;35.60;;
44000;SDS011;29660;42.892;24.710;2022-10-30T16:08:21;47.13;;;30.58;;
44000;SDS011;29660;42.892;24.710;2022-10-30T16:13:27;43.90;;;29.25;;
44000;SDS011;29660;42.892;24.710;2022-10-30T16:18:31;41.70;;;26.77;;
44000;SDS011;29660;42.892;24.710;2022-10-30T16:23:38;42.70;;;31.00;;
44000;SDS011;29660;42.892;24.710;2022-10-30T16:28:45;129.48;;;114.30;;
44000;SDS011;29660;42.892;24.710;2022-10-30T16:33:48;57.33;;;45.83;;
44000;SDS011;29660;42.892;24.710;2022-10-30T16:38:50;49.45;;;36.05;;
44000;SDS011;29660;42.892;24.710;2022-10-30T16:44:12;41.90;;;29.77;;
44000;SDS011;29660;42.892;24.710;2022-10-30T16:49:28;35.63;;;26.50;;
44000;SDS011;29660;42.892;24.710;2022-10-30T16:54:34;30.73;;;21.75;;
44000;SDS011;29660;42.892;24.710;2022-10-30T16:59:43;35.53;;;22.13;;
44000;SDS011;29660;42.892;24.710;2022-10-30T17:04:49;33.75;;;21.13;;
44000;SDS011;29660;42.892;24.710;2022-10-30T17:09:56;35.65;;;25.05;;
44000;SDS011;29660;42.892;24.710;2022-10-30T17:20:12;39.13;;;29.75;;
44000;SDS011;29660;42.892;24.710;2022-10-30T17:25:37;37.70;;;26.33;;
44000;SDS011;29660;42.892;24.710;2022-10-30T17:30:40;34.92;;;25.30;;
44000;SDS011;29660;42.892;24.710;2022-10-30T17:35:44;32.30;;;21.60;;
44000;SDS011;29660;42.892;24.710;2022-10-30T17:40:45;66.95;;;41.00;;
44000;SDS011;29660;42.892;24.710;2022-10-30T17:45:48;52.65;;;39.10;;
44000;SDS011;29660;42.892;24.710;2022-10-30T17:50:49;40.47;;;32.08;;
44000;SDS011;29660;42.892;24.710;2022-10-30T18:01:02;73.28;;;48.10;;
44000;SDS011;29660;42.892;24.710;2022-10-30T18:06:04;65.75;;;42.85;;
44000;SDS011;29660;42.892;24.710;2022-10-30T18:11:15;59.28;;;41.30;;
44000;SDS011;29660;42.892;24.710;2022-10-30T18:16:20;61.25;;;45.33;;
44000;SDS011;29660;42.892;24.710;2022-10-30T18:21:22;54.45;;;40.58;;
44000;SDS011;29660;42.892;24.710;2022-10-30T18:26:28;43.08;;;30.20;;
44000;SDS011;29660;42.892;24.710;2022-10-30T18:31:30;69.55;;;45.38;;
44000;SDS011;29660;42.892;24.710;2022-10-30T18:36:32;56.15;;;36.50;;
44000;SDS011;29660;42.892;24.710;2022-10-30T18:41:35;89.28;;;50.75;;
44000;SDS011;29660;42.892;24.710;2022-10-30T18:46:40;140.18;;;69.50;;
44000;SDS011;29660;42.892;24.710;2022-10-30T18:51:42;113.90;;;59.38;;
44000;SDS011;29660;42.892;24.710;2022-10-30T18:56:44;180.38;;;80.88;;
44000;SDS011;29660;42.892;24.710;2022-10-30T19:01:46;101.30;;;50.00;;
44000;SDS011;29660;42.892;24.710;2022-10-30T19:06:48;103.35;;;49.38;;
44000;SDS011;29660;42.892;24.710;2022-10-30T19:11:50;92.45;;;48.28;;
44000;SDS011;29660;42.892;24.710;2022-10-30T19:16:52;82.75;;;49.22;;
44000;SDS011;29660;42.892;24.710;2022-10-30T19:21:53;78.45;;;50.20;;
44000;SDS011;29660;42.892;24.710;2022-10-30T19:26:55;63.92;;;44.08;;
44000;SDS011;29660;42.892;24.710;2022-10-30T19:31:57;60.92;;;38.35;;
44000;SDS011;29660;42.892;24.710;2022-10-30T19:36:59;45.42;;;28.85;;
44000;SDS011;29660;42.892;24.710;2022-10-30T19:42:01;29.05;;;21.55;;
44000;SDS011;29660;42.892;24.710;2022-10-30T19:47:03;32.25;;;21.83;;
44000;SDS011;29660;42.892;24.710;2022-10-30T19:52:05;35.67;;;23.50;;
44000;SDS011;29660;42.892;24.710;2022-10-30T19:57:10;41.95;;;27.40;;
44000;SDS011;29660;42.892;24.710;2022-10-30T20:02:14;35.80;;;24.25;;
44000;SDS011;29660;42.892;24.710;2022-10-30T20:07:16;43.20;;;26.02;;
44000;SDS011;29660;42.892;24.710;2022-10-30T20:12:18;42.03;;;27.55;;
44000;SDS011;29660;42.892;24.710;2022-10-30T20:17:20;47.80;;;31.73;;
44000;SDS011;29660;42.892;24.710;2022-10-30T20:22:22;43.78;;;28.42;;
44000;SDS011;29660;42.892;24.710;2022-10-30T20:27:28;37.13;;;26.00;;
44000;SDS011;29660;42.892;24.710;2022-10-30T20:32:30;48.45;;;32.15;;
44000;SDS011;29660;42.892;24.710;2022-10-30T20:37:32;50.58;;;32.60;;
44000;SDS011;29660;42.892;24.710;2022-10-30T20:42:34;40.63;;;27.38;;
44000;SDS011;29660;42.892;24.710;2022-10-30T20:47:37;49.42;;;33.80;;
44000;SDS011;29660;42.892;24.710;2022-10-30T20:52:40;47.20;;;33.63;;
44000;SDS011;29660;42.892;24.710;2022-10-30T20:57:42;64.63;;;39.67;;
44000;SDS011;29660;42.892;24.710;2022-10-30T21:02:44;49.75;;;32.38;;
44000;SDS011;29660;42.892;24.710;2022-10-30T21:07:46;46.63;;;29.38;;
44000;SDS011;29660;42.892;24.710;2022-10-30T21:12:48;55.10;;;34.67;;
44000;SDS011;29660;42.892;24.710;2022-10-30T21:17:50;37.63;;;24.98;;
44000;SDS011;29660;42.892;24.710;2022-10-30T21:22:51;32.80;;;21.85;;
44000;SDS011;29660;42.892;24.710;2022-10-30T21:27:55;33.47;;;20.98;;
44000;SDS011;29660;42.892;24.710;2022-10-30T21:32:57;65.45;;;40.75;;
44000;SDS011;29660;42.892;24.710;2022-10-30T21:38:00;36.67;;;21.38;;
44000;SDS011;29660;42.892;24.710;2022-10-30T21:43:02;31.60;;;19.15;;
44000;SDS011;29660;42.892;24.710;2022-10-30T21:48:04;36.53;;;20.75;;
44000;SDS011;29660;42.892;24.710;2022-10-30T21:53:06;27.73;;;17.70;;
44000;SDS011;29660;42.892;24.710;2022-10-30T21:58:09;28.58;;;16.90;;
44000;SDS011;29660;42.892;24.710;2022-10-30T22:03:10;27.05;;;16.25;;
44000;SDS011;29660;42.892;24.710;2022-10-30T22:08:15;38.72;;;26.35;;
44000;SDS011;29660;42.892;24.710;2022-10-30T22:13:18;33.45;;;23.15;;
44000;SDS011;29660;42.892;24.710;2022-10-30T22:18:20;28.58;;;17.52;;
44000;SDS011;29660;42.892;24.710;2022-10-30T22:23:22;26.02;;;17.98;;
44000;SDS011;29660;42.892;24.710;2022-10-30T22:28:24;23.80;;;14.40;;
44000;SDS011;29660;42.892;24.710;2022-10-30T22:33:28;21.70;;;14.80;;
44000;SDS011;29660;42.892;24.710;2022-10-30T22:38:30;19.83;;;12.85;;
44000;SDS011;29660;42.892;24.710;2022-10-30T22:43:33;22.58;;;14.73;;
44000;SDS011;29660;42.892;24.710;2022-10-30T22:48:35;21.27;;;14.50;;
44000;SDS011;29660;42.892;24.710;2022-10-30T22:53:37;22.80;;;15.60;;
44000;SDS011;29660;42.892;24.710;2022-10-30T22:58:40;23.90;;;17.13;;
44000;SDS011;29660;42.892;24.710;2022-10-30T23:03:42;29.60;;;19.40;;
44000;SDS011;29660;42.892;24.710;2022-10-30T23:08:44;28.13;;;18.05;;
44000;SDS011;29660;42.892;24.710;2022-10-30T23:13:46;21.38;;;14.93;;
44000;SDS011;29660;42.892;24.710;2022-10-30T23:18:50;17.60;;;11.50;;
44000;SDS011;29660;42.892;24.710;2022-10-30T23:23:54;17.35;;;10.52;;
44000;SDS011;29660;42.892;24.710;2022-10-30T23:28:57;23.30;;;14.57;;
44000;SDS011;29660;42.892;24.710;2022-10-30T23:34:02;21.27;;;13.20;;
44000;SDS011;29660;42.892;24.710;2022-10-30T23:39:11;22.52;;;13.63;;
44000;SDS011;29660;42.892;24.710;2022-10-30T23:44:15;28.85;;;15.27;;
44000;SDS011;29660;42.892;24.710;2022-10-30T23:49:17;21.75;;;13.80;;
44000;SDS011;29660;42.892;24.710;2022-10-30T23:54:19;21.98;;;14.18;;
44000;SDS011;29660;42.892;24.710;2022-10-30T23:59:21;22.48;;;14.93;;
